sensor_id;sensor_type;location;lat;lon;timestamp;pressure;altitude;pressure_sealevel;temperature;humidity
60055;BME280;45930;53.514;55.904;2023-07-16T00:00:12;48514.03;;;-149.77;100.00
60055;BME280;45930;53.514;55.904;2023-07-16T00:01:14;48494.22;;;-149.77;100.00
60055;BME280;45930;53.514;55.904;2023-07-16T00:02:14;48504.13;;;-149.77;100.00
60055;BME280;45930;53.514;55.904;2023-07-16T00:03:15;48500.16;;;-149.77;100.00
60055;BME280;45930;53.514;55.904;2023-07-16T00:04:16;48486.31;;;-149.77;100.00
60055;BME280;45930;53.514;55.904;2023-07-16T00:05:17;48496.22;;;-149.77;100.00
60055;BME280;45930;53.514;55.904;2023-07-16T00:06:17;48525.91;;;-149.77;100.00
60055;BME280;45930;53.514;55.904;2023-07-16T00:07:18;48521.94;;;-149.77;100.00
60055;BME280;45930;53.514;55.904;2023-07-16T00:08:19;48523.94;;;-149.77;100.00
60055;BME280;45930;53.514;55.904;2023-07-16T00:09:20;48504.13;;;-149.77;100.00
60055;BME280;45930;53.514;55.904;2023-07-16T00:10:20;48500.16;;;-149.77;100.00
60055;BME280;45930;53.514;55.904;2023-07-16T00:11:21;48502.16;;;-149.77;100.00
60055;BME280;45930;53.514;55.904;2023-07-16T00:12:22;48494.22;;;-149.77;100.00
60055;BME280;45930;53.514;55.904;2023-07-16T00:13:23;48498.19;;;-149.77;100.00
60055;BME280;45930;53.514;55.904;2023-07-16T00:14:24;48484.31;;;-149.77;100.00
60055;BME280;45930;53.514;55.904;2023-07-16T00:15:24;48490.25;;;-149.77;100.00
60055;BME280;45930;53.514;55.904;2023-07-16T00:16:25;48494.22;;;-149.77;100.00
60055;BME280;45930;53.514;55.904;2023-07-16T00:17:26;48500.16;;;-149.77;100.00
60055;BME280;45930;53.514;55.904;2023-07-16T00:18:27;48500.16;;;-149.77;100.00
60055;BME280;45930;53.514;55.904;2023-07-16T00:19:28;48521.94;;;-149.77;100.00
60055;BME280;45930;53.514;55.904;2023-07-16T00:20:28;48512.06;;;-149.77;100.00
60055;BME280;45930;53.514;55.904;2023-07-16T00:21:29;48531.84;;;-149.77;100.00
60055;BME280;45930;53.514;55.904;2023-07-16T00:22:30;48512.06;;;-149.77;100.00
60055;BME280;45930;53.514;55.904;2023-07-16T00:23:31;48514.03;;;-149.77;100.00
60055;BME280;45930;53.514;55.904;2023-07-16T00:24:31;48502.16;;;-149.77;100.00
60055;BME280;45930;53.514;55.904;2023-07-16T00:25:32;48537.78;;;-149.77;100.00
60055;BME280;45930;53.514;55.904;2023-07-16T00:26:35;48504.13;;;-149.77;100.00
60055;BME280;45930;53.514;55.904;2023-07-16T00:27:36;48502.16;;;-149.77;100.00
60055;BME280;45930;53.514;55.904;2023-07-16T00:28:37;48482.34;;;-149.77;100.00
60055;BME280;45930;53.514;55.904;2023-07-16T00:29:38;48508.09;;;-149.77;100.00
60055;BME280;45930;53.514;55.904;2023-07-16T00:30:38;48502.16;;;-149.77;100.00
60055;BME280;45930;53.514;55.904;2023-07-16T00:31:39;48502.16;;;-149.77;100.00
60055;BME280;45930;53.514;55.904;2023-07-16T00:32:40;48492.25;;;-149.77;100.00
60055;BME280;45930;53.514;55.904;2023-07-16T00:33:41;48486.31;;;-149.77;100.00
60055;BME280;45930;53.514;55.904;2023-07-16T00:34:42;48508.09;;;-149.77;100.00
60055;BME280;45930;53.514;55.904;2023-07-16T00:35:49;48516.00;;;-149.77;100.00
60055;BME280;45930;53.514;55.904;2023-07-16T00:36:50;48490.25;;;-149.77;100.00
60055;BME280;45930;53.514;55.904;2023-07-16T00:37:51;48541.75;;;-149.77;100.00
60055;BME280;45930;53.514;55.904;2023-07-16T00:38:52;48531.84;;;-149.77;100.00
60055;BME280;45930;53.514;55.904;2023-07-16T00:39:53;48549.69;;;-149.77;100.00
60055;BME280;45930;53.514;55.904;2023-07-16T00:40:54;48514.03;;;-149.77;100.00
60055;BME280;45930;53.514;55.904;2023-07-16T00:41:55;48521.94;;;-149.77;100.00
60055;BME280;45930;53.514;55.904;2023-07-16T00:42:56;48547.69;;;-149.77;100.00
60055;BME280;45930;53.514;55.904;2023-07-16T00:43:57;48533.84;;;-149.77;100.00
60055;BME280;45930;53.514;55.904;2023-07-16T00:44:57;48539.78;;;-149.77;100.00
60055;BME280;45930;53.514;55.904;2023-07-16T00:45:58;48559.59;;;-149.77;100.00
60055;BME280;45930;53.514;55.904;2023-07-16T00:46:59;48523.94;;;-149.77;100.00
60055;BME280;45930;53.514;55.904;2023-07-16T00:48:00;48551.66;;;-149.77;100.00
60055;BME280;45930;53.514;55.904;2023-07-16T00:49:01;48510.06;;;-149.77;100.00
60055;BME280;45930;53.514;55.904;2023-07-16T00:50:03;48525.91;;;-149.77;100.00
60055;BME280;45930;53.514;55.904;2023-07-16T00:51:04;48529.88;;;-149.77;100.00
60055;BME280;45930;53.514;55.904;2023-07-16T00:52:08;48498.19;;;-149.77;100.00
60055;BME280;45930;53.514;55.904;2023-07-16T00:53:12;48512.06;;;-149.77;99.81
60055;BME280;45930;53.514;55.904;2023-07-16T00:54:13;48529.88;;;-149.77;100.00
60055;BME280;45930;53.514;55.904;2023-07-16T00:55:14;48510.06;;;-149.77;100.00
60055;BME280;45930;53.514;55.904;2023-07-16T00:56:16;48498.19;;;-149.77;100.00
60055;BME280;45930;53.514;55.904;2023-07-16T00:57:20;48502.16;;;-149.77;99.94
60055;BME280;45930;53.514;55.904;2023-07-16T00:58:21;48490.25;;;-149.77;100.00
60055;BME280;45930;53.514;55.904;2023-07-16T00:59:21;48476.41;;;-149.77;100.00
60055;BME280;45930;53.514;55.904;2023-07-16T01:00:22;48500.16;;;-149.77;99.95
60055;BME280;45930;53.514;55.904;2023-07-16T01:01:23;48486.31;;;-149.77;99.86
60055;BME280;45930;53.514;55.904;2023-07-16T01:02:24;48492.25;;;-149.77;99.84
60055;BME280;45930;53.514;55.904;2023-07-16T01:03:25;48484.31;;;-149.77;99.88
60055;BME280;45930;53.514;55.904;2023-07-16T01:04:26;48500.16;;;-149.77;100.00
60055;BME280;45930;53.514;55.904;2023-07-16T01:05:32;48514.03;;;-149.77;100.00
60055;BME280;45930;53.514;55.904;2023-07-16T01:06:40;48537.78;;;-149.77;100.00
60055;BME280;45930;53.514;55.904;2023-07-16T01:07:49;48583.34;;;-149.77;100.00
60055;BME280;45930;53.514;55.904;2023-07-16T01:09:03;48579.38;;;-149.77;100.00
60055;BME280;45930;53.514;55.904;2023-07-16T01:10:07;48628.91;;;-149.77;100.00
60055;BME280;45930;53.514;55.904;2023-07-16T01:11:09;48648.69;;;-149.77;100.00
60055;BME280;45930;53.514;55.904;2023-07-16T01:12:10;48684.34;;;-149.77;100.00
60055;BME280;45930;53.514;55.904;2023-07-16T01:13:11;48690.28;;;-149.77;100.00
60055;BME280;45930;53.514;55.904;2023-07-16T01:14:14;48646.72;;;-149.77;100.00
60055;BME280;45930;53.514;55.904;2023-07-16T01:15:16;48624.94;;;-149.77;100.00
60055;BME280;45930;53.514;55.904;2023-07-16T01:16:24;48613.06;;;-149.77;100.00
60055;BME280;45930;53.514;55.904;2023-07-16T01:17:25;48597.22;;;-149.77;100.00
60055;BME280;45930;53.514;55.904;2023-07-16T01:18:26;48597.22;;;-149.77;100.00
60055;BME280;45930;53.514;55.904;2023-07-16T01:19:27;48573.44;;;-149.77;100.00
60055;BME280;45930;53.514;55.904;2023-07-16T01:20:28;48551.66;;;-149.77;100.00
60055;BME280;45930;53.514;55.904;2023-07-16T01:24:31;48482.34;;;-149.77;97.84
60055;BME280;45930;53.514;55.904;2023-07-16T01:28:25;48490.25;;;-149.77;93.77
60055;BME280;45930;53.514;55.904;2023-07-16T01:29:47;48468.47;;;-149.77;93.74
60055;BME280;45930;53.514;55.904;2023-07-16T01:30:51;48450.66;;;-149.77;94.15
60055;BME280;45930;53.514;55.904;2023-07-16T01:31:55;48446.69;;;-149.77;94.08
60055;BME280;45930;53.514;55.904;2023-07-16T01:32:56;48430.84;;;-149.77;94.46
60055;BME280;45930;53.514;55.904;2023-07-16T01:33:59;48470.47;;;-149.77;94.80
60055;BME280;45930;53.514;55.904;2023-07-16T01:35:00;48458.56;;;-149.77;94.80
60055;BME280;45930;53.514;55.904;2023-07-16T01:36:05;48434.81;;;-149.77;94.94
60055;BME280;45930;53.514;55.904;2023-07-16T01:37:08;48472.44;;;-149.77;94.85
60055;BME280;45930;53.514;55.904;2023-07-16T01:38:11;48424.91;;;-149.77;94.76
60055;BME280;45930;53.514;55.904;2023-07-16T01:39:13;48383.31;;;-149.77;94.75
60055;BME280;45930;53.514;55.904;2023-07-16T01:40:14;48430.84;;;-149.77;94.11
60055;BME280;45930;53.514;55.904;2023-07-16T01:41:15;48438.78;;;-149.77;93.43
60055;BME280;45930;53.514;55.904;2023-07-16T01:42:16;48458.56;;;-149.77;92.77
60055;BME280;45930;53.514;55.904;2023-07-16T01:43:16;48420.94;;;-149.77;92.29
60055;BME280;45930;53.514;55.904;2023-07-16T01:44:17;48438.78;;;-149.77;92.39
60055;BME280;45930;53.514;55.904;2023-07-16T01:45:18;48413.03;;;-149.77;92.27
60055;BME280;45930;53.514;55.904;2023-07-16T01:46:19;48448.69;;;-149.77;92.32
60055;BME280;45930;53.514;55.904;2023-07-16T01:47:45;48462.53;;;-149.77;91.05
60055;BME280;45930;53.514;55.904;2023-07-16T01:48:50;48462.53;;;-149.77;91.61
60055;BME280;45930;53.514;55.904;2023-07-16T01:49:50;48417.00;;;-149.77;91.44
60055;BME280;45930;53.514;55.904;2023-07-16T01:50:51;48424.91;;;-149.77;91.24
60055;BME280;45930;53.514;55.904;2023-07-16T01:51:52;48430.84;;;-149.77;91.96
60055;BME280;45930;53.514;55.904;2023-07-16T01:52:53;48407.09;;;-149.77;92.15
60055;BME280;45930;53.514;55.904;2023-07-16T01:53:53;48426.91;;;-149.77;92.68
60055;BME280;45930;53.514;55.904;2023-07-16T01:54:54;48418.97;;;-149.77;93.16
60055;BME280;45930;53.514;55.904;2023-07-16T01:55:55;48417.00;;;-149.77;93.14
60055;BME280;45930;53.514;55.904;2023-07-16T01:56:56;48420.94;;;-149.77;93.72
60055;BME280;45930;53.514;55.904;2023-07-16T01:57:56;48407.09;;;-149.77;94.56
60055;BME280;45930;53.514;55.904;2023-07-16T01:58:57;48405.09;;;-149.77;94.60
60055;BME280;45930;53.514;55.904;2023-07-16T01:59:58;48393.22;;;-149.77;94.80
60055;BME280;45930;53.514;55.904;2023-07-16T02:00:59;48415.00;;;-149.77;94.44
60055;BME280;45930;53.514;55.904;2023-07-16T02:02:00;48413.03;;;-149.77;93.67
60055;BME280;45930;53.514;55.904;2023-07-16T02:03:00;48420.94;;;-149.77;93.79
60055;BME280;45930;53.514;55.904;2023-07-16T02:04:01;48411.06;;;-149.77;93.45
60055;BME280;45930;53.514;55.904;2023-07-16T02:05:02;48418.97;;;-149.77;92.86
60055;BME280;45930;53.514;55.904;2023-07-16T02:06:03;48405.09;;;-149.77;92.68
60055;BME280;45930;53.514;55.904;2023-07-16T02:07:04;48444.72;;;-149.77;91.79
60055;BME280;45930;53.514;55.904;2023-07-16T02:08:05;48450.66;;;-149.77;91.20
60055;BME280;45930;53.514;55.904;2023-07-16T02:09:06;48426.91;;;-149.77;91.04
60055;BME280;45930;53.514;55.904;2023-07-16T02:10:07;48452.63;;;-149.77;90.62
60055;BME280;45930;53.514;55.904;2023-07-16T02:11:09;48440.75;;;-149.77;90.36
60055;BME280;45930;53.514;55.904;2023-07-16T02:12:10;48442.75;;;-149.77;90.47
60055;BME280;45930;53.514;55.904;2023-07-16T02:13:11;48434.81;;;-149.77;89.87
60055;BME280;45930;53.514;55.904;2023-07-16T02:14:11;48436.78;;;-149.77;89.83
60055;BME280;45930;53.514;55.904;2023-07-16T02:15:13;48438.78;;;-149.77;90.14
60055;BME280;45930;53.514;55.904;2023-07-16T02:16:14;48442.75;;;-149.77;89.66
60055;BME280;45930;53.514;55.904;2023-07-16T02:17:15;48442.75;;;-149.77;89.69
60055;BME280;45930;53.514;55.904;2023-07-16T02:18:16;48450.66;;;-149.77;89.45
60055;BME280;45930;53.514;55.904;2023-07-16T02:19:37;48417.00;;;-149.77;90.68
60055;BME280;45930;53.514;55.904;2023-07-16T02:20:38;48415.00;;;-149.77;90.81
60055;BME280;45930;53.514;55.904;2023-07-16T02:21:38;48424.91;;;-149.77;90.76
60055;BME280;45930;53.514;55.904;2023-07-16T02:22:39;48434.81;;;-149.77;90.55
60055;BME280;45930;53.514;55.904;2023-07-16T02:23:40;48446.69;;;-149.77;90.76
60055;BME280;45930;53.514;55.904;2023-07-16T02:24:41;48413.03;;;-149.77;91.23
60055;BME280;45930;53.514;55.904;2023-07-16T02:25:42;48420.94;;;-149.77;91.23
60055;BME280;45930;53.514;55.904;2023-07-16T02:26:43;48409.06;;;-149.77;91.22
60055;BME280;45930;53.514;55.904;2023-07-16T02:27:44;48444.72;;;-149.77;91.37
60055;BME280;45930;53.514;55.904;2023-07-16T02:28:45;48428.88;;;-149.77;90.40
60055;BME280;45930;53.514;55.904;2023-07-16T02:29:45;48403.13;;;-149.77;89.71
60055;BME280;45930;53.514;55.904;2023-07-16T02:30:46;48460.56;;;-149.77;88.83
60055;BME280;45930;53.514;55.904;2023-07-16T02:31:48;48430.84;;;-149.77;89.10
60055;BME280;45930;53.514;55.904;2023-07-16T02:32:52;48456.59;;;-149.77;88.00
60055;BME280;45930;53.514;55.904;2023-07-16T02:33:53;48470.47;;;-149.77;88.12
60055;BME280;45930;53.514;55.904;2023-07-16T02:34:54;48490.25;;;-149.77;86.90
60055;BME280;45930;53.514;55.904;2023-07-16T02:35:54;48521.94;;;-149.77;85.80
60055;BME280;45930;53.514;55.904;2023-07-16T02:36:55;48486.31;;;-149.77;85.73
60055;BME280;45930;53.514;55.904;2023-07-16T02:37:56;48478.38;;;-149.77;85.50
60055;BME280;45930;53.514;55.904;2023-07-16T02:38:57;48498.19;;;-149.77;85.80
60055;BME280;45930;53.514;55.904;2023-07-16T02:39:58;48478.38;;;-149.77;86.12
60055;BME280;45930;53.514;55.904;2023-07-16T02:40:59;48490.25;;;-149.77;86.04
60055;BME280;45930;53.514;55.904;2023-07-16T02:42:00;48480.38;;;-149.77;86.82
60055;BME280;45930;53.514;55.904;2023-07-16T02:43:01;48498.19;;;-149.77;86.45
60055;BME280;45930;53.514;55.904;2023-07-16T02:44:04;48498.19;;;-149.77;85.89
60055;BME280;45930;53.514;55.904;2023-07-16T02:45:06;48486.31;;;-149.77;86.11
60055;BME280;45930;53.514;55.904;2023-07-16T02:46:07;48494.22;;;-149.77;85.80
60055;BME280;45930;53.514;55.904;2023-07-16T02:47:08;48456.59;;;-149.77;87.36
60055;BME280;45930;53.514;55.904;2023-07-16T02:48:08;48434.81;;;-149.77;88.29
60055;BME280;45930;53.514;55.904;2023-07-16T02:49:09;48401.16;;;-149.77;89.57
60055;BME280;45930;53.514;55.904;2023-07-16T02:50:10;48399.16;;;-149.77;90.73
60055;BME280;45930;53.514;55.904;2023-07-16T02:51:11;48405.09;;;-149.77;91.43
60055;BME280;45930;53.514;55.904;2023-07-16T02:52:12;48399.16;;;-149.77;91.78
60055;BME280;45930;53.514;55.904;2023-07-16T02:53:12;48371.44;;;-149.77;92.25
60055;BME280;45930;53.514;55.904;2023-07-16T02:54:13;48397.19;;;-149.77;93.35
60055;BME280;45930;53.514;55.904;2023-07-16T02:55:14;48395.22;;;-149.77;95.04
60055;BME280;45930;53.514;55.904;2023-07-16T02:56:15;48395.22;;;-149.77;96.85
60055;BME280;45930;53.514;55.904;2023-07-16T02:57:17;48401.16;;;-149.77;96.99
60055;BME280;45930;53.514;55.904;2023-07-16T02:58:17;48418.97;;;-149.77;96.68
60055;BME280;45930;53.514;55.904;2023-07-16T02:59:18;48407.09;;;-149.77;96.55
60055;BME280;45930;53.514;55.904;2023-07-16T03:00:19;48420.94;;;-149.77;94.90
60055;BME280;45930;53.514;55.904;2023-07-16T03:01:20;48424.91;;;-149.77;91.80
60055;BME280;45930;53.514;55.904;2023-07-16T03:02:21;48432.84;;;-149.77;89.82
60055;BME280;45930;53.514;55.904;2023-07-16T03:03:22;48413.03;;;-149.77;88.98
60055;BME280;45930;53.514;55.904;2023-07-16T03:04:23;48452.63;;;-149.77;89.39
60055;BME280;45930;53.514;55.904;2023-07-16T03:05:24;48436.78;;;-149.77;89.47
60055;BME280;45930;53.514;55.904;2023-07-16T03:06:25;48466.50;;;-149.77;87.35
60055;BME280;45930;53.514;55.904;2023-07-16T03:07:25;48518.00;;;-149.77;85.20
60055;BME280;45930;53.514;55.904;2023-07-16T03:08:26;48519.97;;;-149.77;84.56
60055;BME280;45930;53.514;55.904;2023-07-16T03:09:30;48559.59;;;-149.77;83.59
60055;BME280;45930;53.514;55.904;2023-07-16T03:10:31;48622.97;;;-149.77;80.86
60055;BME280;45930;53.514;55.904;2023-07-16T03:11:32;48644.75;;;-149.77;79.80
60055;BME280;45930;53.514;55.904;2023-07-16T03:12:32;48648.69;;;-149.77;79.55
60055;BME280;45930;53.514;55.904;2023-07-16T03:13:33;48573.44;;;-149.77;80.67
60055;BME280;45930;53.514;55.904;2023-07-16T03:14:34;48599.19;;;-149.77;80.93
60055;BME280;45930;53.514;55.904;2023-07-16T03:15:35;48585.31;;;-149.77;80.89
60055;BME280;45930;53.514;55.904;2023-07-16T03:16:35;48561.56;;;-149.77;81.34
60055;BME280;45930;53.514;55.904;2023-07-16T03:17:36;48597.22;;;-149.77;81.07
60055;BME280;45930;53.514;55.904;2023-07-16T03:18:37;48640.78;;;-149.77;80.24
60055;BME280;45930;53.514;55.904;2023-07-16T03:19:38;48680.38;;;-149.77;79.11
60055;BME280;45930;53.514;55.904;2023-07-16T03:20:38;48668.50;;;-149.77;78.27
60055;BME280;45930;53.514;55.904;2023-07-16T03:21:39;48636.81;;;-149.77;78.90
60055;BME280;45930;53.514;55.904;2023-07-16T03:22:40;48617.00;;;-149.77;79.99
60055;BME280;45930;53.514;55.904;2023-07-16T03:23:41;48615.03;;;-149.77;79.69
60055;BME280;45930;53.514;55.904;2023-07-16T03:24:42;48644.75;;;-149.77;79.18
60055;BME280;45930;53.514;55.904;2023-07-16T03:25:42;48648.69;;;-149.77;79.00
60055;BME280;45930;53.514;55.904;2023-07-16T03:26:43;48672.47;;;-149.77;78.42
60055;BME280;45930;53.514;55.904;2023-07-16T03:27:44;48694.25;;;-149.77;77.74
60055;BME280;45930;53.514;55.904;2023-07-16T03:28:45;48690.28;;;-149.77;77.01
60055;BME280;45930;53.514;55.904;2023-07-16T03:29:46;48723.97;;;-149.77;76.09
60055;BME280;45930;53.514;55.904;2023-07-16T03:30:48;48771.50;;;-149.77;74.39
60055;BME280;45930;53.514;55.904;2023-07-16T03:31:49;48842.78;;;-149.77;73.02
60055;BME280;45930;53.514;55.904;2023-07-16T03:32:50;48811.09;;;-149.77;73.07
60055;BME280;45930;53.514;55.904;2023-07-16T03:33:51;48832.88;;;-149.77;72.64
60055;BME280;45930;53.514;55.904;2023-07-16T03:34:51;48834.88;;;-149.77;72.36
60055;BME280;45930;53.514;55.904;2023-07-16T03:35:52;48834.88;;;-149.77;73.06
60055;BME280;45930;53.514;55.904;2023-07-16T03:36:53;48793.28;;;-149.77;73.64
60055;BME280;45930;53.514;55.904;2023-07-16T03:37:54;48848.72;;;-149.77;71.95
60055;BME280;45930;53.514;55.904;2023-07-16T03:38:54;48815.06;;;-149.77;72.54
60055;BME280;45930;53.514;55.904;2023-07-16T03:39:55;48832.88;;;-149.77;72.76
60055;BME280;45930;53.514;55.904;2023-07-16T03:40:56;48876.47;;;-149.77;71.30
60055;BME280;45930;53.514;55.904;2023-07-16T03:41:57;48870.53;;;-149.77;72.11
60055;BME280;45930;53.514;55.904;2023-07-16T03:42:57;48838.84;;;-149.77;72.06
60055;BME280;45930;53.514;55.904;2023-07-16T03:43:58;48882.41;;;-149.77;71.31
60055;BME280;45930;53.514;55.904;2023-07-16T03:44:59;48902.22;;;-149.77;70.11
60055;BME280;45930;53.514;55.904;2023-07-16T03:46:00;48906.16;;;-149.77;70.70
60055;BME280;45930;53.514;55.904;2023-07-16T03:47:01;48922.03;;;-149.77;70.42
60055;BME280;45930;53.514;55.904;2023-07-16T03:48:02;48852.69;;;-149.77;71.27
60055;BME280;45930;53.514;55.904;2023-07-16T03:49:06;48906.16;;;-149.77;70.53
60055;BME280;45930;53.514;55.904;2023-07-16T03:50:08;48858.63;;;-149.77;71.30
60055;BME280;45930;53.514;55.904;2023-07-16T03:51:09;48955.69;;;-149.77;68.84
60055;BME280;45930;53.514;55.904;2023-07-16T03:52:10;48981.44;;;-149.77;68.01
60055;BME280;45930;53.514;55.904;2023-07-16T03:53:10;48967.56;;;-149.77;68.50
60055;BME280;45930;53.514;55.904;2023-07-16T03:54:11;48989.34;;;-149.77;67.36
60055;BME280;45930;53.514;55.904;2023-07-16T03:55:12;49036.91;;;-149.77;66.74
60055;BME280;45930;53.514;55.904;2023-07-16T03:56:13;49015.09;;;-149.77;66.80
60055;BME280;45930;53.514;55.904;2023-07-16T03:57:13;48997.28;;;-149.77;66.82
60055;BME280;45930;53.514;55.904;2023-07-16T03:58:14;49052.75;;;-149.77;66.06
60055;BME280;45930;53.514;55.904;2023-07-16T03:59:15;49058.69;;;-149.77;65.30
60055;BME280;45930;53.514;55.904;2023-07-16T04:00:16;49040.84;;;-149.77;65.82
60055;BME280;45930;53.514;55.904;2023-07-16T04:01:17;49046.78;;;-149.77;65.25
60055;BME280;45930;53.514;55.904;2023-07-16T04:02:17;49009.16;;;-149.77;66.11
60055;BME280;45930;53.514;55.904;2023-07-16T04:03:18;48997.28;;;-149.77;67.03
60055;BME280;45930;53.514;55.904;2023-07-16T04:04:19;48922.03;;;-149.77;69.37
60055;BME280;45930;53.514;55.904;2023-07-16T04:05:20;48830.91;;;-149.77;72.36
60055;BME280;45930;53.514;55.904;2023-07-16T04:06:21;48791.28;;;-149.77;73.64
60055;BME280;45930;53.514;55.904;2023-07-16T04:07:22;48751.69;;;-149.77;75.14
60055;BME280;45930;53.514;55.904;2023-07-16T04:08:22;48733.88;;;-149.77;75.04
60055;BME280;45930;53.514;55.904;2023-07-16T04:09:23;48757.63;;;-149.77;75.18
60055;BME280;45930;53.514;55.904;2023-07-16T04:10:24;48757.63;;;-149.77;74.94
60055;BME280;45930;53.514;55.904;2023-07-16T04:11:25;48743.75;;;-149.77;75.26
60055;BME280;45930;53.514;55.904;2023-07-16T04:12:26;48793.28;;;-149.77;73.83
60055;BME280;45930;53.514;55.904;2023-07-16T04:13:26;48731.88;;;-149.77;75.66
60055;BME280;45930;53.514;55.904;2023-07-16T04:14:27;48714.06;;;-149.77;76.77
60055;BME280;45930;53.514;55.904;2023-07-16T04:15:28;48727.91;;;-149.77;76.20
60055;BME280;45930;53.514;55.904;2023-07-16T04:16:29;48739.81;;;-149.77;76.32
60055;BME280;45930;53.514;55.904;2023-07-16T04:17:30;48690.28;;;-149.77;77.08
60055;BME280;45930;53.514;55.904;2023-07-16T04:18:31;48638.78;;;-149.77;78.64
60055;BME280;45930;53.514;55.904;2023-07-16T04:19:31;48617.00;;;-149.77;79.62
60055;BME280;45930;53.514;55.904;2023-07-16T04:20:32;48672.47;;;-149.77;77.78
60055;BME280;45930;53.514;55.904;2023-07-16T04:21:34;48512.06;;;-149.77;83.02
60055;BME280;45930;53.514;55.904;2023-07-16T04:22:35;48474.41;;;-149.77;83.83
60055;BME280;45930;53.514;55.904;2023-07-16T04:23:36;48496.22;;;-149.77;83.10
60055;BME280;45930;53.514;55.904;2023-07-16T04:24:37;48494.22;;;-149.77;83.45
60055;BME280;45930;53.514;55.904;2023-07-16T04:25:38;48537.78;;;-149.77;82.94
60055;BME280;45930;53.514;55.904;2023-07-16T04:26:38;48595.22;;;-149.77;80.38
60055;BME280;45930;53.514;55.904;2023-07-16T04:27:40;48516.00;;;-149.77;82.14
60055;BME280;45930;53.514;55.904;2023-07-16T04:28:42;48571.47;;;-149.77;81.43
60055;BME280;45930;53.514;55.904;2023-07-16T04:29:42;48583.34;;;-149.77;80.43
60055;BME280;45930;53.514;55.904;2023-07-16T04:30:43;48557.59;;;-149.77;80.96
60055;BME280;45930;53.514;55.904;2023-07-16T04:31:44;48510.06;;;-149.77;81.22
60055;BME280;45930;53.514;55.904;2023-07-16T04:32:45;48557.59;;;-149.77;80.81
60055;BME280;45930;53.514;55.904;2023-07-16T04:33:46;48573.44;;;-149.77;80.21
60055;BME280;45930;53.514;55.904;2023-07-16T04:34:47;48630.88;;;-149.77;78.93
60055;BME280;45930;53.514;55.904;2023-07-16T04:35:48;48650.69;;;-149.77;77.18
60055;BME280;45930;53.514;55.904;2023-07-16T04:36:49;48714.06;;;-149.77;76.66
60055;BME280;45930;53.514;55.904;2023-07-16T04:37:49;48735.84;;;-149.77;74.04
60055;BME280;45930;53.514;55.904;2023-07-16T04:38:50;48870.53;;;-149.77;70.81
60055;BME280;45930;53.514;55.904;2023-07-16T04:39:51;48886.38;;;-149.77;70.49
60055;BME280;45930;53.514;55.904;2023-07-16T04:40:52;48916.06;;;-149.77;69.47
60055;BME280;45930;53.514;55.904;2023-07-16T04:41:52;48910.13;;;-149.77;70.25
60055;BME280;45930;53.514;55.904;2023-07-16T04:42:53;48929.94;;;-149.77;69.46
60055;BME280;45930;53.514;55.904;2023-07-16T04:43:54;48971.53;;;-149.77;67.86
60055;BME280;45930;53.514;55.904;2023-07-16T04:44:55;48989.34;;;-149.77;67.31
60055;BME280;45930;53.514;55.904;2023-07-16T04:45:56;49009.16;;;-149.77;67.12
60055;BME280;45930;53.514;55.904;2023-07-16T04:46:56;49001.25;;;-149.77;67.13
60055;BME280;45930;53.514;55.904;2023-07-16T04:47:57;48979.47;;;-149.77;67.32
60055;BME280;45930;53.514;55.904;2023-07-16T04:50:01;49084.44;;;-149.77;63.74
60055;BME280;45930;53.514;55.904;2023-07-16T04:51:04;49017.09;;;-149.77;65.50
60055;BME280;45930;53.514;55.904;2023-07-16T04:52:05;49052.75;;;-149.77;65.35
60055;BME280;45930;53.514;55.904;2023-07-16T04:53:06;49030.94;;;-149.77;65.54
60055;BME280;45930;53.514;55.904;2023-07-16T04:54:07;49042.84;;;-149.77;66.08
60055;BME280;45930;53.514;55.904;2023-07-16T04:55:08;49082.44;;;-149.77;64.33
60055;BME280;45930;53.514;55.904;2023-07-16T04:56:12;49104.25;;;-149.77;63.59
60055;BME280;45930;53.514;55.904;2023-07-16T04:57:13;49118.09;;;-149.77;63.69
60055;BME280;45930;53.514;55.904;2023-07-16T04:58:14;49128.00;;;-149.77;63.17
60055;BME280;45930;53.514;55.904;2023-07-16T04:59:15;49122.06;;;-149.77;61.84
60055;BME280;45930;53.514;55.904;2023-07-16T05:00:16;49116.13;;;-149.77;63.29
60055;BME280;45930;53.514;55.904;2023-07-16T05:01:17;49086.41;;;-149.77;64.55
60055;BME280;45930;53.514;55.904;2023-07-16T05:02:17;49066.59;;;-149.77;65.45
60055;BME280;45930;53.514;55.904;2023-07-16T05:03:18;49066.59;;;-149.77;65.42
60055;BME280;45930;53.514;55.904;2023-07-16T05:04:19;49048.78;;;-149.77;66.57
60055;BME280;45930;53.514;55.904;2023-07-16T05:05:20;48961.63;;;-149.77;67.90
60055;BME280;45930;53.514;55.904;2023-07-16T05:06:20;48955.69;;;-149.77;68.48
60055;BME280;45930;53.514;55.904;2023-07-16T05:07:21;48943.81;;;-149.77;69.31
60055;BME280;45930;53.514;55.904;2023-07-16T05:08:22;48912.13;;;-149.77;70.76
60055;BME280;45930;53.514;55.904;2023-07-16T05:09:23;48858.63;;;-149.77;71.31
60055;BME280;45930;53.514;55.904;2023-07-16T05:10:23;48858.63;;;-149.77;72.17
60055;BME280;45930;53.514;55.904;2023-07-16T05:11:24;48819.03;;;-149.77;73.42
60055;BME280;45930;53.514;55.904;2023-07-16T05:12:26;48813.09;;;-149.77;73.25
60055;BME280;45930;53.514;55.904;2023-07-16T05:13:27;48819.03;;;-149.77;73.15
60055;BME280;45930;53.514;55.904;2023-07-16T05:14:28;48821.00;;;-149.77;72.93
60055;BME280;45930;53.514;55.904;2023-07-16T05:15:32;48860.63;;;-149.77;71.77
60055;BME280;45930;53.514;55.904;2023-07-16T05:16:32;48856.66;;;-149.77;71.44
60055;BME280;45930;53.514;55.904;2023-07-16T05:17:33;48824.97;;;-149.77;72.52
60055;BME280;45930;53.514;55.904;2023-07-16T05:18:35;48767.53;;;-149.77;74.66